Accueil
METAR-TAF:

METAR-TAF

Aéroports :

Asahikawa Air Base, Japon

latitude: 43-48N, longitude: 142-22E, altitude: 115 m

Observation

Le bulletin a été fait il y a 23 heures et 4 minutes, à 23:40 UTC
Vent 1 kt de direction variable
Température -11°C
Humidité 72%
Pression 1019 hPa
Visibilité 10 km ou plus
Quelques nuages à une hauteur de 800 ft
Nuages épars à une hauteur de 2500 ft
Nuages fragmentés à une hauteur de 4000 ft
faibles averses de neige

METAR: RJCA 212340Z VRB01KT 9999 -SHSN FEW008 SCT025 BKN040 M11/M15 Q1019 RMK 1ST008 3CU025 5CU040 A3009

Heure: 07:44 (22:44 UTC)


TAF: absent

Observations et prévisions météorologiques de plus de 4000 aéroports (messages METAR et TAF).

Les stations disponibles sont représentées par des disques jaunes et rouges sur la carte.

Passer la souris dessus pour voir le nom de la station.

Cliquer dessus pour voir les observations et prévisions météorologiques.

Pour changer de carte: cliquez sur les boutons verts avec une croix noire pour zoomer, sur le bouton vert avec un tiret pour effectuer un zoom arrière, ou sur les flèches vertes pour les cartes adjacentes.


METAR-TAF: